Kezdőlap
METAR-TAF:

METAR-TAF

Repülőterek :

Oswego County Airport

Fulton, New York, Amerikai Egyesült Államok

földrajzi szélesség: 43-21-03N, földrajzi hosszúság: 076-23-17W, magasság: 145 m

Jelenlegi meteorológiai megfigyelések

A jelentés 20 perccel ezelõtt készült, 22:04 UTC
Délkeleti szél 8 kt széllökések: 15 kt
Hőmérséklet -7°C
Páratartalom 79%
Légköri nyomás 1008 hPa
Látótávolság: 2.0 km
Szakadozott felhőzet 1200 lábon
Borult 3600 lábon
enyhe havazás

METAR: KFZY 182204Z AUTO 13008G15KT 1 1/4SM -SN BKN012 OVC036 M07/M10 A2977 RMK AO2 P0000 T10671100 $

Idő: 17:24 (22:24 UTC)


TAF: hiányzik

Meteorológiai megfigyelések és előrejelzések több, mint 4000 repülőtéren (METAR és TAF jelentéseket).

A térképen piros és sárga pontok jelzik az elérhető meteorológiai állomásokat.

Mozgassa az egeret a pont fölött, hogy megjelenjen az állomás neve.

Azután kattintson az időjárási megfigyelések és előrejelzések megtekintéséhez.

A térkép megváltoztatása: kattintson a fekete keresztel jelölt zöld gombra ráközelítéshez, a vonallal jelölt zöld gombra távolításhoz, vagy a zöld nyilakra a szomszédos térképek eléréséhez.


METAR-TAF: